createdAt,value
2023-02-13T00:01:02.323Z,2.46
2023-02-13T00:03:29.972Z,2.53
2023-02-13T00:05:57.261Z,2.60
2023-02-13T00:08:24.742Z,2.60
2023-02-13T00:10:52.196Z,2.55
2023-02-13T00:13:19.732Z,2.51
2023-02-13T00:15:56.725Z,2.47
2023-02-13T00:18:24.529Z,2.45
2023-02-13T00:21:18.003Z,2.38
2023-02-13T00:23:45.366Z,2.33
2023-02-13T00:26:14.789Z,2.53
2023-02-13T00:28:42.790Z,2.67
2023-02-13T00:31:12.889Z,2.76
2023-02-13T00:33:45.482Z,2.90
2023-02-13T00:36:20.847Z,2.94
2023-02-13T00:38:48.082Z,3.01
2023-02-13T00:41:17.647Z,2.94
2023-02-13T00:43:45.761Z,2.97
2023-02-13T00:46:14.901Z,2.91
2023-02-13T00:48:42.938Z,2.89
2023-02-13T00:51:10.651Z,2.92
2023-02-13T00:53:38.997Z,2.99
2023-02-13T00:56:08.923Z,2.94
2023-02-13T00:58:36.394Z,2.94
2023-02-13T01:01:03.960Z,2.93
2023-02-13T01:03:31.413Z,2.98
2023-02-13T01:05:58.886Z,2.99
2023-02-13T01:08:28.589Z,3.05
2023-02-13T01:10:57.641Z,2.94
2023-02-13T01:13:25.137Z,2.86
2023-02-13T01:15:52.881Z,2.73
2023-02-13T01:18:21.583Z,2.72
2023-02-13T01:21:03.182Z,2.75
2023-02-13T01:23:32.630Z,2.87
2023-02-13T01:26:04.868Z,2.90
2023-02-13T01:28:35.002Z,2.78
2023-02-13T01:31:05.753Z,2.86
2023-02-13T01:33:33.024Z,2.89
2023-02-13T01:36:07.270Z,3.06
2023-02-13T01:38:34.532Z,3.05
2023-02-13T01:41:01.624Z,3.10
2023-02-13T01:43:55.649Z,3.12
2023-02-13T01:46:26.511Z,3.07
2023-02-13T01:48:58.725Z,3.08
2023-02-13T01:51:31.658Z,3.06
2023-02-13T01:54:06.255Z,3.03
2023-02-13T01:56:43.308Z,3.06
2023-02-13T01:59:26.295Z,3.08
2023-02-13T02:01:54.585Z,3.08
2023-02-13T02:04:27.287Z,3.03
2023-02-13T02:07:19.417Z,3.07
2023-02-13T02:09:47.547Z,3.12
2023-02-13T02:12:50.237Z,3.10
2023-02-13T02:15:17.863Z,3.05
2023-02-13T02:17:52.381Z,3.10
2023-02-13T02:20:42.998Z,3.17
2023-02-13T02:23:10.300Z,3.17
2023-02-13T02:26:17.935Z,3.15
2023-02-13T02:29:13.890Z,3.23
2023-02-13T02:32:13.281Z,3.11
2023-02-13T02:35:04.730Z,3.20
2023-02-13T02:37:52.369Z,3.18
2023-02-13T02:40:44.262Z,3.15
2023-02-13T02:43:35.101Z,3.15
2023-02-13T02:46:23.461Z,3.17
2023-02-13T02:49:33.905Z,3.19
2023-02-13T02:52:19.830Z,3.17
2023-02-13T02:55:14.212Z,3.11
2023-02-13T02:58:19.168Z,3.03
2023-02-13T03:01:07.980Z,3.10
2023-02-13T03:03:54.930Z,3.04
2023-02-13T03:06:33.041Z,3.14
2023-02-13T03:09:22.255Z,3.22
2023-02-13T03:12:10.755Z,3.08
2023-02-13T03:14:38.414Z,3.04
2023-02-13T03:17:24.980Z,2.96
2023-02-13T03:20:20.891Z,3.05
2023-02-13T03:23:09.453Z,2.98
2023-02-13T03:25:39.624Z,2.99
2023-02-13T03:28:30.674Z,3.01
2023-02-13T03:31:07.632Z,3.01
2023-02-13T03:33:50.367Z,2.97
2023-02-13T03:36:51.444Z,2.88
2023-02-13T03:39:53.471Z,2.86
2023-02-13T03:42:41.019Z,3.01
2023-02-13T03:45:57.548Z,2.94
2023-02-13T03:48:51.710Z,3.07
2023-02-13T03:51:36.587Z,3.12
2023-02-13T03:54:12.001Z,3.05
2023-02-13T03:57:00.057Z,3.03
2023-02-13T03:59:37.383Z,3.07
2023-02-13T04:02:15.545Z,3.06
2023-02-13T04:04:59.439Z,3.13
2023-02-13T04:07:31.026Z,3.26
2023-02-13T04:10:09.352Z,3.05
2023-02-13T04:13:05.959Z,3.03
2023-02-13T04:15:42.734Z,3.03
2023-02-13T04:18:20.516Z,2.93
2023-02-13T04:20:47.749Z,2.94
2023-02-13T04:23:16.602Z,2.75
2023-02-13T04:25:49.144Z,2.79
2023-02-13T04:28:16.356Z,2.82
2023-02-13T04:30:44.535Z,2.89
2023-02-13T04:33:11.643Z,2.89
2023-02-13T04:35:39.254Z,2.91
2023-02-13T04:38:06.748Z,3.04
2023-02-13T04:40:36.225Z,3.08
2023-02-13T04:43:03.620Z,2.94
2023-02-13T04:45:31.209Z,3.10
2023-02-13T04:48:00.768Z,3.06
2023-02-13T04:50:29.243Z,3.04
2023-02-13T04:52:58.569Z,3.00
2023-02-13T04:55:28.767Z,2.89
2023-02-13T04:57:56.498Z,2.87
2023-02-13T05:00:29.278Z,3.16
2023-02-13T05:03:04.869Z,3.04
2023-02-13T05:05:32.462Z,3.27
2023-02-13T05:07:59.744Z,3.28
2023-02-13T05:10:28.048Z,3.26
2023-02-13T05:13:02.476Z,3.19
2023-02-13T05:15:29.899Z,3.14
2023-02-13T05:17:57.252Z,3.14
2023-02-13T05:20:24.333Z,3.18
2023-02-13T05:23:12.424Z,3.27
2023-02-13T05:25:42.157Z,3.28
2023-02-13T05:28:29.813Z,3.28
2023-02-13T05:30:58.704Z,3.31
2023-02-13T05:33:26.370Z,3.26
2023-02-13T05:35:54.564Z,3.13
2023-02-13T05:38:22.071Z,3.22
2023-02-13T05:40:49.455Z,3.34
2023-02-13T05:43:16.939Z,3.05
2023-02-13T05:45:44.454Z,3.14
2023-02-13T05:48:12.051Z,3.24
2023-02-13T05:50:39.520Z,3.04
2023-02-13T05:53:07.830Z,3.01
2023-02-13T05:55:35.224Z,3.12
2023-02-13T05:58:02.826Z,3.16
2023-02-13T06:00:35.760Z,3.09
2023-02-13T06:03:04.505Z,3.24
2023-02-13T06:05:32.852Z,3.27
2023-02-13T06:08:00.208Z,3.41
2023-02-13T06:10:27.717Z,3.28
2023-02-13T06:12:55.109Z,3.36
2023-02-13T06:15:22.666Z,3.41
2023-02-13T06:17:50.043Z,3.48
2023-02-13T06:20:17.240Z,3.40
2023-02-13T06:22:44.521Z,3.33
2023-02-13T06:25:13.803Z,3.27
2023-02-13T06:27:43.009Z,3.32
2023-02-13T06:30:12.081Z,3.46
2023-02-13T06:32:39.535Z,3.47
2023-02-13T06:35:07.599Z,3.52
2023-02-13T06:37:35.309Z,3.50
2023-02-13T06:40:02.870Z,3.32
2023-02-13T06:42:30.248Z,3.39
2023-02-13T06:44:57.707Z,3.45
2023-02-13T06:47:25.534Z,3.51
2023-02-13T06:49:55.214Z,3.54
2023-02-13T06:52:22.635Z,3.65
2023-02-13T06:54:50.179Z,3.65
2023-02-13T06:57:17.691Z,3.64
2023-02-13T06:59:47.094Z,3.63
2023-02-13T07:02:14.661Z,3.64
2023-02-13T07:04:41.978Z,3.72
2023-02-13T07:07:09.524Z,3.74
2023-02-13T07:09:37.247Z,3.66
2023-02-13T07:12:06.043Z,3.51
2023-02-13T07:14:33.472Z,3.53
2023-02-13T07:17:08.055Z,3.51
2023-02-13T07:19:35.474Z,3.55
2023-02-13T07:22:10.219Z,3.64
2023-02-13T07:24:38.940Z,3.64
2023-02-13T07:27:06.122Z,3.61
2023-02-13T07:29:33.450Z,3.51
2023-02-13T07:32:01.219Z,3.54
2023-02-13T07:34:29.404Z,3.64
2023-02-13T07:36:56.466Z,3.60
2023-02-13T07:39:23.871Z,3.58
2023-02-13T07:41:51.975Z,3.61
2023-02-13T07:44:19.200Z,3.65
2023-02-13T07:46:46.738Z,3.69
2023-02-13T07:49:14.075Z,3.74
2023-02-13T07:51:42.575Z,3.74
2023-02-13T07:54:10.032Z,3.72
2023-02-13T07:56:37.560Z,3.88
2023-02-13T07:59:06.878Z,4.01
2023-02-13T08:01:41.190Z,4.08
2023-02-13T08:04:08.639Z,4.18
2023-02-13T08:06:36.065Z,4.15
2023-02-13T08:09:22.386Z,4.27
2023-02-13T08:11:55.890Z,4.24
2023-02-13T08:14:28.399Z,4.19
2023-02-13T08:16:55.734Z,4.24
2023-02-13T08:19:23.004Z,4.23
2023-02-13T08:21:50.612Z,4.22
2023-02-13T08:24:18.059Z,4.26
2023-02-13T08:26:45.432Z,4.34
2023-02-13T08:29:13.945Z,4.40
2023-02-13T08:31:41.028Z,4.38
2023-02-13T08:34:09.341Z,4.34
2023-02-13T08:36:36.966Z,4.32
2023-02-13T08:39:04.332Z,4.49
2023-02-13T08:41:32.035Z,4.36
2023-02-13T08:44:00.154Z,4.57
2023-02-13T08:46:27.631Z,4.58
2023-02-13T08:48:55.159Z,4.40
2023-02-13T08:51:22.639Z,4.49
2023-02-13T08:53:50.050Z,4.53
2023-02-13T08:56:17.432Z,4.55
2023-02-13T08:58:45.060Z,4.56
2023-02-13T09:01:12.376Z,4.60
2023-02-13T09:03:39.574Z,4.55
2023-02-13T09:06:08.916Z,4.55
2023-02-13T09:08:36.805Z,4.57
2023-02-13T09:11:07.540Z,4.60
2023-02-13T09:13:37.241Z,4.64
2023-02-13T09:16:06.864Z,4.61
2023-02-13T09:18:35.500Z,4.77
2023-02-13T09:21:12.301Z,4.83
2023-02-13T09:23:41.300Z,4.90
2023-02-13T09:26:11.383Z,4.90
2023-02-13T09:28:39.148Z,5.00
2023-02-13T09:31:17.929Z,4.89
2023-02-13T09:33:46.569Z,4.92
2023-02-13T09:36:16.466Z,4.94
2023-02-13T09:38:53.897Z,5.03
2023-02-13T09:41:25.812Z,5.04
2023-02-13T09:44:01.449Z,5.07
2023-02-13T09:46:54.919Z,5.13
2023-02-13T09:49:27.574Z,5.17
2023-02-13T09:51:57.739Z,5.16
2023-02-13T09:54:26.965Z,5.25
2023-02-13T09:57:11.894Z,5.27
2023-02-13T10:00:03.021Z,5.32
2023-02-13T10:02:51.879Z,5.31
2023-02-13T10:05:22.083Z,5.16
2023-02-13T10:08:42.745Z,5.22
2023-02-13T10:11:44.551Z,5.26
2023-02-13T10:14:24.920Z,5.07
2023-02-13T10:17:16.476Z,5.25
2023-02-13T10:20:26.623Z,5.31
2023-02-13T10:23:24.469Z,5.28
2023-02-13T10:25:58.406Z,5.26
2023-02-13T10:29:19.859Z,5.23
2023-02-13T10:31:51.058Z,5.27
2023-02-13T10:34:25.242Z,5.25
2023-02-13T10:36:53.648Z,5.16
2023-02-13T10:39:30.631Z,5.24
2023-02-13T10:42:20.488Z,5.24
2023-02-13T10:45:18.937Z,5.16
2023-02-13T10:48:21.865Z,5.19
2023-02-13T10:51:06.976Z,5.24
2023-02-13T10:53:45.111Z,5.33
2023-02-13T10:56:46.126Z,5.25
2023-02-13T10:59:56.857Z,5.32
2023-02-13T11:02:26.654Z,5.34
2023-02-13T11:05:20.745Z,5.42
2023-02-13T11:07:48.400Z,5.42
2023-02-13T11:10:26.792Z,5.58
2023-02-13T11:12:56.464Z,5.56
2023-02-13T11:15:32.412Z,5.63
2023-02-13T11:18:18.794Z,5.72
2023-02-13T11:20:48.448Z,5.81
2023-02-13T11:23:29.736Z,5.88
2023-02-13T11:26:01.062Z,5.89
2023-02-13T11:28:32.967Z,5.98
2023-02-13T11:31:21.987Z,5.95
2023-02-13T11:33:49.738Z,6.00
2023-02-13T11:36:24.125Z,6.04
2023-02-13T11:39:17.656Z,6.06
2023-02-13T11:41:47.666Z,6.05
2023-02-13T11:44:28.720Z,6.08
2023-02-13T11:46:58.996Z,6.05
2023-02-13T11:49:28.358Z,6.11
2023-02-13T11:52:01.760Z,6.13
2023-02-13T11:54:44.000Z,5.93
2023-02-13T11:57:31.595Z,5.94
2023-02-13T12:00:01.762Z,5.94
2023-02-13T12:02:31.714Z,5.93
2023-02-13T12:05:17.569Z,6.02
2023-02-13T12:07:46.102Z,6.15
2023-02-13T12:10:17.579Z,6.22
2023-02-13T12:13:03.229Z,6.21
2023-02-13T12:15:34.508Z,6.23
2023-02-13T12:18:07.282Z,6.12
2023-02-13T12:21:02.732Z,6.29
2023-02-13T12:23:51.865Z,6.44
2023-02-13T12:26:37.703Z,6.78
2023-02-13T12:29:11.952Z,6.89
2023-02-13T12:32:00.325Z,6.69
2023-02-13T12:34:42.411Z,6.56
2023-02-13T12:37:40.671Z,6.54
2023-02-13T12:40:37.269Z,6.44
2023-02-13T12:43:35.520Z,6.34
2023-02-13T12:46:11.303Z,6.39
2023-02-13T12:48:51.928Z,6.43
2023-02-13T12:51:41.529Z,6.29
2023-02-13T12:54:39.422Z,6.30
2023-02-13T12:57:15.918Z,6.31
2023-02-13T13:00:17.457Z,6.22
2023-02-13T13:03:02.578Z,6.24
2023-02-13T13:06:10.731Z,6.16
2023-02-13T13:09:16.373Z,6.10
2023-02-13T13:12:17.748Z,6.02
2023-02-13T13:15:12.231Z,6.05
2023-02-13T13:17:58.250Z,6.07
2023-02-13T13:20:28.090Z,6.03
2023-02-13T13:23:05.131Z,5.98
2023-02-13T13:25:45.585Z,5.86
2023-02-13T13:28:26.965Z,5.85
2023-02-13T13:30:54.724Z,5.78
2023-02-13T13:33:24.764Z,5.83
2023-02-13T13:36:24.955Z,5.87
2023-02-13T13:39:06.733Z,5.88
2023-02-13T13:41:52.124Z,5.85
2023-02-13T13:44:51.601Z,5.79
2023-02-13T13:47:24.832Z,5.75
2023-02-13T13:50:28.731Z,5.70
2023-02-13T13:53:16.352Z,5.71
2023-02-13T13:56:13.109Z,5.62
2023-02-13T13:58:45.944Z,5.59
2023-02-13T14:01:21.547Z,5.57
2023-02-13T14:03:51.456Z,5.52
2023-02-13T14:06:22.202Z,5.38
2023-02-13T14:08:49.969Z,5.47
2023-02-13T14:11:46.885Z,5.40
2023-02-13T14:14:31.115Z,5.43
2023-02-13T14:17:02.432Z,5.41
2023-02-13T14:19:38.035Z,5.44
2023-02-13T14:22:39.030Z,5.43
2023-02-13T14:25:29.890Z,5.44
2023-02-13T14:28:06.998Z,5.39
2023-02-13T14:30:38.398Z,5.44
2023-02-13T14:33:29.697Z,5.27
2023-02-13T14:36:22.506Z,5.16
2023-02-13T14:39:02.866Z,5.24
2023-02-13T14:41:48.096Z,5.17
2023-02-13T14:44:20.642Z,5.21
2023-02-13T14:46:50.358Z,5.18
2023-02-13T14:49:31.525Z,4.99
2023-02-13T14:52:03.420Z,4.81
2023-02-13T14:54:49.981Z,4.60
2023-02-13T14:57:24.215Z,4.57
2023-02-13T14:59:56.587Z,4.52
2023-02-13T15:02:31.641Z,4.51
2023-02-13T15:05:20.499Z,4.52
2023-02-13T15:07:54.716Z,4.58
2023-02-13T15:10:40.695Z,4.57
2023-02-13T15:13:33.560Z,4.46
2023-02-13T15:16:12.633Z,4.44
2023-02-13T15:18:49.514Z,4.43
2023-02-13T15:21:27.064Z,4.37
2023-02-13T15:23:56.971Z,4.41
2023-02-13T15:26:30.894Z,4.45
2023-02-13T15:29:35.169Z,4.44
2023-02-13T15:32:28.449Z,4.45
2023-02-13T15:35:31.772Z,4.43
2023-02-13T15:38:26.453Z,4.36
2023-02-13T15:40:59.445Z,4.34
2023-02-13T15:43:40.889Z,4.36
2023-02-13T15:46:31.648Z,4.24
2023-02-13T15:49:06.706Z,4.22
2023-02-13T15:51:35.126Z,4.33
2023-02-13T15:54:09.067Z,4.24
2023-02-13T15:56:38.647Z,4.17
2023-02-13T15:59:06.898Z,4.14
2023-02-13T16:01:35.002Z,4.07
2023-02-13T16:04:10.000Z,4.06
2023-02-13T16:06:38.003Z,4.02
2023-02-13T16:09:07.863Z,4.15
2023-02-13T16:11:45.645Z,4.19
2023-02-13T16:14:30.877Z,4.29
2023-02-13T16:17:15.111Z,4.25
2023-02-13T16:20:00.747Z,4.27
2023-02-13T16:22:35.046Z,4.32
2023-02-13T16:25:41.197Z,4.35
2023-02-13T16:28:24.684Z,4.27
2023-02-13T16:31:16.132Z,4.32
2023-02-13T16:33:44.610Z,4.27
2023-02-13T16:36:12.819Z,4.37
2023-02-13T16:38:44.968Z,4.34
2023-02-13T16:41:19.792Z,4.26
2023-02-13T16:43:59.186Z,4.26
2023-02-13T16:46:28.745Z,4.13
2023-02-13T16:49:06.223Z,4.20
2023-02-13T16:51:48.547Z,4.34
2023-02-13T16:54:21.162Z,4.28
2023-02-13T16:56:56.871Z,4.27
2023-02-13T16:59:36.003Z,4.09
2023-02-13T17:02:20.103Z,4.10
2023-02-13T17:04:54.969Z,4.00
2023-02-13T17:07:33.356Z,4.00
2023-02-13T17:10:27.660Z,4.23
2023-02-13T17:13:02.185Z,4.14
2023-02-13T17:15:33.089Z,4.03
2023-02-13T17:18:02.101Z,3.93
2023-02-13T17:20:32.278Z,4.05
2023-02-13T17:23:02.266Z,3.91
2023-02-13T17:25:38.630Z,3.87
2023-02-13T17:28:21.357Z,3.87
2023-02-13T17:30:53.255Z,3.79
2023-02-13T17:33:26.784Z,3.74
2023-02-13T17:35:54.681Z,3.75
2023-02-13T17:38:22.792Z,3.79
2023-02-13T17:40:52.767Z,3.81
2023-02-13T17:43:21.928Z,3.82
2023-02-13T17:45:51.269Z,3.72
2023-02-13T17:48:20.373Z,3.82
2023-02-13T17:50:50.293Z,3.83
2023-02-13T17:53:24.051Z,3.77
2023-02-13T17:55:52.964Z,3.78
2023-02-13T17:58:21.935Z,3.69
2023-02-13T18:00:56.460Z,3.73
2023-02-13T18:03:34.411Z,3.77
2023-02-13T18:06:02.288Z,3.66
2023-02-13T18:08:30.648Z,3.70
2023-02-13T18:10:58.977Z,3.67
2023-02-13T18:13:26.970Z,3.61
2023-02-13T18:15:58.042Z,3.87
2023-02-13T18:18:26.832Z,3.70
2023-02-13T18:20:58.046Z,3.69
2023-02-13T18:23:25.959Z,3.86
2023-02-13T18:25:54.033Z,3.98
2023-02-13T18:31:05.735Z,3.92
2023-02-13T18:33:37.073Z,3.86
2023-02-13T18:36:06.210Z,3.85
2023-02-13T18:38:35.712Z,3.98
2023-02-13T18:41:07.039Z,3.93
2023-02-13T18:43:38.522Z,3.81
2023-02-13T18:46:08.340Z,3.91
2023-02-13T18:48:36.891Z,3.89
2023-02-13T18:51:09.210Z,3.89
2023-02-13T18:53:37.414Z,3.86
2023-02-13T18:56:07.993Z,3.89
2023-02-13T18:58:36.309Z,3.89
2023-02-13T19:01:16.053Z,3.88
2023-02-13T19:03:45.905Z,3.88
2023-02-13T19:06:18.382Z,3.83
2023-02-13T19:08:46.819Z,3.83
2023-02-13T19:11:20.350Z,3.82
2023-02-13T19:14:00.874Z,3.76
2023-02-13T19:30:22.800Z,3.87
2023-02-13T19:32:51.922Z,3.85
2023-02-13T19:35:22.418Z,3.90
2023-02-13T19:37:50.524Z,3.92
2023-02-13T19:40:19.070Z,3.89
2023-02-13T19:42:48.294Z,3.93
2023-02-13T19:45:18.862Z,4.03
2023-02-13T19:47:47.877Z,4.15
2023-02-13T19:50:17.513Z,4.03
2023-02-13T19:52:47.080Z,3.94
2023-02-13T19:55:15.508Z,3.96
2023-02-13T19:57:43.323Z,3.99
2023-02-13T20:00:12.584Z,3.96
2023-02-13T20:02:47.225Z,3.94
2023-02-13T20:05:15.793Z,3.97
2023-02-13T20:07:45.306Z,3.88
2023-02-13T20:10:15.734Z,3.90
2023-02-13T20:12:45.341Z,3.95
2023-02-13T20:15:13.830Z,3.98
2023-02-13T20:17:41.842Z,3.96
2023-02-13T20:20:10.418Z,3.94
2023-02-13T20:22:40.204Z,3.94
2023-02-13T20:25:09.598Z,3.95
2023-02-13T20:27:42.843Z,3.89
2023-02-13T20:30:14.669Z,3.93
2023-02-13T20:32:45.222Z,3.87
2023-02-13T20:35:14.547Z,3.83
2023-02-13T20:37:43.818Z,3.82
2023-02-13T20:40:12.623Z,3.89
2023-02-13T20:42:41.014Z,3.95
2023-02-13T20:45:10.460Z,4.01
2023-02-13T20:47:38.658Z,4.13
2023-02-13T20:50:07.807Z,4.22
2023-02-13T20:52:37.031Z,4.18
2023-02-13T20:55:08.080Z,4.38
2023-02-13T20:57:44.659Z,4.39
2023-02-13T21:00:18.955Z,4.49
2023-02-13T21:02:47.769Z,4.48
2023-02-13T21:05:18.298Z,4.62
2023-02-13T21:07:48.712Z,4.52
2023-02-13T21:10:20.704Z,4.62
2023-02-13T21:12:49.400Z,4.65
2023-02-13T21:15:18.420Z,4.68
2023-02-13T21:17:47.319Z,4.66
2023-02-13T21:20:18.282Z,4.66
2023-02-13T21:22:46.447Z,4.67
2023-02-13T21:25:20.249Z,4.67
2023-02-13T21:27:48.137Z,4.68
2023-02-13T21:30:16.969Z,4.71
2023-02-13T21:32:49.044Z,4.73
2023-02-13T21:35:20.869Z,4.69
2023-02-13T21:37:48.622Z,4.65
2023-02-13T21:40:17.684Z,4.62
2023-02-13T21:42:45.590Z,4.72
2023-02-13T21:45:14.974Z,4.74
2023-02-13T21:47:42.642Z,4.72
2023-02-13T21:50:12.775Z,4.60
2023-02-13T21:52:39.948Z,4.61
2023-02-13T21:55:08.869Z,4.69
2023-02-13T21:57:36.474Z,4.68
2023-02-13T22:00:06.861Z,4.68
2023-02-13T22:02:34.743Z,4.69
2023-02-13T22:05:02.299Z,4.65
2023-02-13T22:07:30.562Z,4.68
2023-02-13T22:09:57.918Z,4.64
2023-02-13T22:12:26.232Z,4.65
2023-02-13T22:14:54.946Z,4.64
2023-02-13T22:17:24.377Z,4.68
2023-02-13T22:19:57.353Z,4.69
2023-02-13T22:22:24.880Z,4.61
2023-02-13T22:24:52.343Z,4.62
2023-02-13T22:27:19.853Z,4.55
2023-02-13T22:29:47.312Z,4.71
2023-02-13T22:32:17.797Z,4.64
2023-02-13T22:34:46.311Z,4.57
2023-02-13T22:37:19.834Z,4.50
2023-02-13T22:39:47.112Z,4.58
2023-02-13T22:42:15.326Z,4.57
2023-02-13T22:44:42.740Z,4.45
2023-02-13T22:47:10.199Z,4.43
2023-02-13T22:49:37.723Z,4.53
2023-02-13T22:52:17.926Z,4.61
2023-02-13T22:54:46.654Z,4.59
2023-02-13T22:57:13.802Z,4.64
2023-02-13T22:59:43.772Z,4.64
2023-02-13T23:02:11.803Z,4.58
2023-02-13T23:04:48.514Z,4.52
2023-02-13T23:07:18.522Z,4.56
2023-02-13T23:09:52.682Z,4.59
2023-02-13T23:12:39.287Z,4.54
2023-02-13T23:15:10.785Z,4.58
2023-02-13T23:17:59.154Z,4.53
2023-02-13T23:20:27.130Z,4.58
2023-02-13T23:22:54.536Z,4.49
2023-02-13T23:25:23.210Z,4.54
2023-02-13T23:27:50.940Z,4.52
2023-02-13T23:30:19.460Z,4.60
2023-02-13T23:32:46.938Z,4.60
2023-02-13T23:35:14.310Z,4.58
2023-02-13T23:37:42.346Z,4.52
2023-02-13T23:40:12.510Z,4.56
2023-02-13T23:42:41.342Z,4.49
2023-02-13T23:45:09.133Z,4.52
2023-02-13T23:47:36.738Z,4.52
2023-02-13T23:50:05.457Z,4.36
2023-02-13T23:52:33.665Z,4.35
2023-02-13T23:55:01.141Z,4.37
2023-02-13T23:57:28.625Z,4.32
2023-02-13T23:59:56.056Z,4.29
